Decoded Metar for LFQB (TROYES in FRANCE) (IATA:QYR) | Meteo·Mobile Aviation Weather
aviador You're here:

LFQB Decoded Metar

TROYES in FRANCE
Report Time2019-05-25 23:00:00
UTC Time2019-05-25 23:20:18
Flight Rules ifr IFR
Wind310° at 03 kt
W.Decomp.*RWY 35: 2.3 kt HW 1.9 kt LCW
RWY 23: 0.5 kt HW 3.0 kt RCW
Visibility2700 m
Phenomena:Mist
Clouds:N/A
Expected CloudBase > 400 ft AGL from Temp-Dew spread
CeilingNone
Temp11°C (ISA -3)
Dew Point10°C (94% RH)
AAT10.0°C
QNH1019 hPa
Density Alt-36 ft
Elevation387 ft
Report Wrong Elevation
Raw Report
LFQB 252300Z AUTO 31003KT 2700 BR NSC 11/10 Q1019=

Extra information for LFQB:More info

Metar Taf Metar & Taf Last 4 Metars F.Rules Stats Wind Profile Meteogram Temp Stats Airport Information Weather charts Add Link Nearby VenuesMetar ALERT Operation Metar Decoded Social comments